Sinnamary, French Guiana
Current Conditions -  °F | °C
As of 1:30 PM on Thursday 23 Oct 2014 (Local Time) from SOCA Reporting Station
Few Clouds Few Clouds  
Wind Chill: 91°   Ceiling: Unl
Heat Index: 97°   Visibility: 6mi
Dew Point: 70°   Wind: 14mph
Humidity: 49%   Direction: 70°ENE
Pressure: 29.83"   Gusts: NA
Location:  5.02°N, 52.95°W
Report Text: SOCA 231630Z AUTO 07012KT 9999 FEW035/// 33/21 Q1010
Loading
Personal Weather Stations






























Interactive Weather Map
Tropical Storm Tracking
New forecast layout! Learn more

10-Day Weather Forecast

Advertisements
Track Severe Weather on mobile